Virtual LH

Virtual LH. There's no better way to fly
Since 2013.



AIRPORT MAP

METAR AND TAF INFORMATION

METAR FOR OIIE
ADDS - METARS form results

(1057 UTC 20 June 2019)
Data provider http://aviationweather.gov/metar/data/
 
METAR text: OIIE 201030Z 12018KT CAVOK 36/01 Q1007
Conditions at: OIIE (IMAM KHOMEINI , IR) observed 1030 UTC 20 June 2019
Temperature: 36.0°C (97°F)
Dewpoint: 1.0°C (34°F) [RH = 11%]
Pressure (altimeter): 29.73 inches Hg (1007.0 mb)
Winds: from the ESE (120 degrees) at 21 MPH (18 knots; 9.3 m/s)
Visibility: 6 or more miles (10+ km)
Ceiling: ceiling and visibility are OK
Clouds: unknown
Weather: no significant weather observed at this time

METAR text: OIIE 201000Z 12018KT CAVOK 36/01 Q1007
Conditions at: OIIE (IMAM KHOMEINI , IR) observed 1000 UTC 20 June 2019
Temperature: 36.0°C (97°F)
Dewpoint: 1.0°C (34°F) [RH = 11%]
Pressure (altimeter): 29.73 inches Hg (1007.0 mb)
Winds: from the ESE (120 degrees) at 21 MPH (18 knots; 9.3 m/s)
Visibility: 6 or more miles (10+ km)
Ceiling: ceiling and visibility are OK
Clouds: unknown
Weather: no significant weather observed at this time

Forecast for: OIIE (IMAM KHOMEINI , IR)
Text: TAF OIIE 200530Z 2006/2112 32012KT CAVOK
Forecast period: 0600 to 1000 UTC 20 June 2019
Forecast type: FROM: standard forecast or significant change
Winds: from the NW (320 degrees) at 14 MPH (12 knots; 6.2 m/s)
Visibility: 6 or more miles 10+ km)
Ceiling: unknown
Clouds: missing
Weather: NSW  (no significant weather)
Text: BECMG 2010/2012 FEW040
Forecast period: 1000 UTC 20 June 2019 to 1200 UTC 21 June 2019
Forecast type: BECOMING: Conditions expected to become as follows by 1200 UTC 20 June 2019
Winds: from the NW (320 degrees) at 14 MPH (12 knots; 6.2 m/s)
Visibility: 6 or more miles 10+ km)
Ceiling: at least 12,000 feet AGL
Clouds: few clouds at 4000 feet AGL
Weather: NSW  (no significant weather)
Text: TEMPO 2109/2112 31018KT
Forecast period: 0900 to 1200 UTC 21 June 2019
Forecast type: TEMPORARY: The following changes expected for less than half the time period
Winds: from the NW (310 degrees) at 21 MPH (18 knots; 9.3 m/s)
Visibility: missing
Ceiling: unknown
Clouds: missing
Weather: no significant weather forecast for this period

RUNWAY INFORMATION

Runway 11L Runway length 13772 ft Runway width 148 ft
Runway elevation 3305 ft Runway displaced threshold 0 ft Runway heading 109
Runway 29R Runway length 13772 ft Runway width 148 ft
Runway elevation 3256 ft Runway displaced threshold 0 ft Runway heading 289
Runway 11R Runway length 13940 ft Runway width 148 ft
Runway elevation 3305 ft Runway displaced threshold 0 ft Runway heading 109
Runway 29L Runway length 13940 ft Runway width 148 ft
Runway elevation 3257 ft Runway displaced threshold 1972 ft Runway heading 289

AIRPORT FREQUENCIES

Type ATIS Name ATIS Frequency 127.2 MHZ
Type GND Name GND Frequency 121.6 MHZ
Type TWR Name TWR Frequency 118.7 MHZ

AIRPORT NEAR NAVIGATION AIDS

Type VOR-DME Name Imam Khomeini Frequency 114300 KHZ